createdAt,value
2024-01-30T00:02:20.325Z,101792.78
2024-01-30T00:04:48.026Z,101803.47
2024-01-30T00:07:15.790Z,101791.91
2024-01-30T00:09:43.650Z,101797.19
2024-01-30T00:12:12.789Z,101798.53
2024-01-30T00:14:40.538Z,101795.03
2024-01-30T00:17:08.191Z,101793.41
2024-01-30T00:19:36.093Z,101791.09
2024-01-30T00:22:03.955Z,101787.31
2024-01-30T00:24:31.652Z,101779.44
2024-01-30T00:26:59.340Z,101784.97
2024-01-30T00:29:31.490Z,101767.63
2024-01-30T00:31:59.253Z,101777.91
2024-01-30T00:34:26.993Z,101775.19
2024-01-30T00:36:55.017Z,101779.78
2024-01-30T00:39:22.903Z,101782.53
2024-01-30T00:41:50.636Z,101765.75
2024-01-30T00:44:18.353Z,101770.25
2024-01-30T00:46:47.768Z,101770.56
2024-01-30T00:49:15.493Z,101770.81
2024-01-30T00:51:43.339Z,101769.97
2024-01-30T00:54:11.185Z,101766.69
2024-01-30T00:56:38.834Z,101763.94
2024-01-30T00:59:06.483Z,101768.22
2024-01-30T01:01:34.352Z,101770.03
2024-01-30T01:04:03.632Z,101773.53
2024-01-30T01:06:31.432Z,101770.88
2024-01-30T01:09:00.464Z,101768.19
2024-01-30T01:11:29.233Z,101765.50
2024-01-30T01:13:56.953Z,101761.13
2024-01-30T01:16:24.600Z,101769.06
2024-01-30T01:18:52.443Z,101767.31
2024-01-30T01:21:21.565Z,101761.94
2024-01-30T01:23:49.217Z,101767.94
2024-01-30T01:26:16.917Z,101769.63
2024-01-30T01:28:44.561Z,101771.44
2024-01-30T01:31:12.247Z,101764.31
2024-01-30T01:33:40.431Z,101773.25
2024-01-30T01:36:08.662Z,101764.69
2024-01-30T01:38:37.724Z,101767.50
2024-01-30T01:41:05.709Z,101764.00
2024-01-30T01:43:33.417Z,101765.88
2024-01-30T01:46:02.569Z,101766.44
2024-01-30T01:48:30.961Z,101767.41
2024-01-30T01:50:59.226Z,101764.63
2024-01-30T01:53:28.981Z,101769.16
2024-01-30T01:55:59.058Z,101766.44
2024-01-30T01:58:31.076Z,101756.31
2024-01-30T02:01:00.200Z,101748.28
2024-01-30T02:03:28.112Z,101743.78
2024-01-30T02:05:57.199Z,101756.31
2024-01-30T02:08:25.532Z,101753.47
2024-01-30T02:10:53.297Z,101745.47
2024-01-30T02:13:23.529Z,101749.84
2024-01-30T02:15:52.467Z,101745.84
2024-01-30T02:18:22.282Z,101752.72
2024-01-30T02:20:49.973Z,101741.22
2024-01-30T02:23:19.012Z,101738.59
2024-01-30T02:25:46.658Z,101737.78
2024-01-30T02:28:14.618Z,101731.59
2024-01-30T02:30:42.765Z,101735.31
2024-01-30T02:33:10.524Z,101725.09
2024-01-30T02:35:38.290Z,101727.38
2024-01-30T02:38:06.548Z,101735.53
2024-01-30T02:40:35.559Z,101724.69
2024-01-30T02:43:04.315Z,101723.00
2024-01-30T02:45:32.071Z,101725.50
2024-01-30T02:47:59.776Z,101730.78
2024-01-30T02:50:27.530Z,101721.25
2024-01-30T02:52:55.290Z,101722.44
2024-01-30T02:55:23.078Z,101720.81
2024-01-30T02:57:52.303Z,101719.19
2024-01-30T03:00:21.793Z,101710.28
2024-01-30T03:02:49.475Z,101709.19
2024-01-30T03:05:17.151Z,101703.69
2024-01-30T03:07:44.964Z,101706.38
2024-01-30T03:10:12.682Z,101703.81
2024-01-30T03:12:40.378Z,101702.00
2024-01-30T03:15:11.942Z,101694.06
2024-01-30T03:17:39.824Z,101683.28
2024-01-30T03:20:08.626Z,101694.94
2024-01-30T03:22:36.743Z,101689.41
2024-01-30T03:25:04.950Z,101692.09
2024-01-30T03:27:32.626Z,101687.59
2024-01-30T03:30:00.433Z,101690.41
2024-01-30T03:32:29.552Z,101691.09
2024-01-30T03:34:57.392Z,101687.78
2024-01-30T03:37:25.293Z,101687.78
2024-01-30T03:39:53.068Z,101695.88
2024-01-30T03:42:20.974Z,101694.19
2024-01-30T03:44:48.680Z,101683.56
2024-01-30T03:47:16.426Z,101684.44
2024-01-30T03:49:45.545Z,101681.81
2024-01-30T03:52:13.315Z,101680.88
2024-01-30T03:54:41.170Z,101678.19
2024-01-30T03:57:08.914Z,101681.88
2024-01-30T03:59:36.619Z,101680.06
2024-01-30T04:02:05.556Z,101671.31
2024-01-30T04:04:33.607Z,101660.06
2024-01-30T04:07:02.706Z,101677.81
2024-01-30T04:09:30.368Z,101671.44
2024-01-30T04:11:58.134Z,101664.38
2024-01-30T04:14:25.761Z,101669.94
2024-01-30T04:16:53.503Z,101671.81
2024-01-30T04:19:21.299Z,101657.13
2024-01-30T04:21:49.116Z,101658.72
2024-01-30T04:24:19.714Z,101648.97
2024-01-30T04:26:46.448Z,101648.91
2024-01-30T04:29:14.201Z,101647.22
2024-01-30T04:31:42.081Z,101646.22
2024-01-30T04:34:09.800Z,101645.31
2024-01-30T04:36:37.688Z,101648.03
2024-01-30T04:39:05.452Z,101644.59
2024-01-30T04:41:34.984Z,101645.00
2024-01-30T04:44:02.850Z,101647.75
2024-01-30T04:46:30.519Z,101647.75
2024-01-30T04:48:58.484Z,101648.69
2024-01-30T04:51:26.222Z,101646.94
2024-01-30T04:53:53.890Z,101647.88
2024-01-30T04:56:21.627Z,101654.03
2024-01-30T04:58:50.698Z,101644.19
2024-01-30T05:01:18.753Z,101638.94
2024-01-30T05:03:46.834Z,101644.19
2024-01-30T05:06:14.643Z,101640.63
2024-01-30T05:08:42.397Z,101640.41
2024-01-30T05:11:10.603Z,101639.34
2024-01-30T05:13:38.323Z,101643.97
2024-01-30T05:16:07.812Z,101650.03
2024-01-30T05:18:35.700Z,101653.72
2024-01-30T05:21:04.669Z,101659.19
2024-01-30T05:23:32.513Z,101649.50
2024-01-30T05:26:01.975Z,101644.25
2024-01-30T05:28:29.893Z,101643.50
2024-01-30T05:30:57.941Z,101653.47
2024-01-30T05:33:27.287Z,101647.34
2024-01-30T05:35:55.491Z,101634.22
2024-01-30T05:38:23.213Z,101642.16
2024-01-30T05:40:50.942Z,101646.84
2024-01-30T05:43:18.629Z,101646.97
2024-01-30T05:45:46.405Z,101649.59
2024-01-30T05:48:14.072Z,101639.88
2024-01-30T05:50:43.319Z,101649.81
2024-01-30T05:53:11.027Z,101648.13
2024-01-30T05:55:38.855Z,101638.22
2024-01-30T05:58:06.573Z,101648.94
2024-01-30T06:00:34.325Z,101644.94
2024-01-30T06:03:02.034Z,101641.31
2024-01-30T06:05:29.829Z,101645.84
2024-01-30T06:07:59.000Z,101643.28
2024-01-30T06:10:26.869Z,101642.41
2024-01-30T06:12:54.650Z,101644.31
2024-01-30T06:15:22.313Z,101643.44
2024-01-30T06:17:50.031Z,101642.56
2024-01-30T06:20:18.239Z,101642.50
2024-01-30T06:22:45.931Z,101644.19
2024-01-30T06:25:15.194Z,101640.69
2024-01-30T06:27:42.941Z,101646.94
2024-01-30T06:30:11.702Z,101644.31
2024-01-30T06:32:39.689Z,101638.84
2024-01-30T06:35:08.228Z,101644.19
2024-01-30T06:37:35.975Z,101643.31
2024-01-30T06:40:03.784Z,101642.56
2024-01-30T06:42:32.929Z,101633.81
2024-01-30T06:45:00.621Z,101639.94
2024-01-30T06:47:29.749Z,101638.13
2024-01-30T06:49:57.636Z,101637.31
2024-01-30T06:52:25.465Z,101639.00
2024-01-30T06:54:53.241Z,101636.31
2024-01-30T06:57:21.107Z,101637.31
2024-01-30T06:59:50.161Z,101626.59
2024-01-30T07:02:18.369Z,101637.25
2024-01-30T07:04:47.533Z,101630.16
2024-01-30T07:07:16.132Z,101630.97
2024-01-30T07:09:44.097Z,101633.53
2024-01-30T07:12:11.809Z,101646.69
2024-01-30T07:14:39.489Z,101651.88
2024-01-30T07:17:09.734Z,101650.69
2024-01-30T07:19:37.575Z,101648.72
2024-01-30T07:22:05.642Z,101649.97
2024-01-30T07:24:33.317Z,101656.09
2024-01-30T07:27:01.012Z,101650.72
2024-01-30T07:29:28.742Z,101667.56
2024-01-30T07:31:56.489Z,101674.69
2024-01-30T07:34:25.627Z,101662.09
2024-01-30T07:36:56.356Z,101676.31
2024-01-30T07:39:24.199Z,101675.28
2024-01-30T07:41:51.909Z,101676.88
2024-01-30T07:44:19.709Z,101670.63
2024-01-30T07:46:47.377Z,101665.13
2024-01-30T07:49:15.503Z,101664.09
2024-01-30T07:51:46.170Z,101672.00
2024-01-30T07:54:14.166Z,101662.91
2024-01-30T07:56:42.811Z,101666.31
2024-01-30T07:59:11.912Z,101666.81
2024-01-30T08:01:39.734Z,101671.19
2024-01-30T08:04:07.529Z,101684.41
2024-01-30T08:06:35.500Z,101681.50
2024-01-30T08:09:05.903Z,101691.94
2024-01-30T08:11:33.617Z,101697.19
2024-01-30T08:14:01.274Z,101691.63
2024-01-30T08:16:29.068Z,101704.00
2024-01-30T08:18:58.965Z,101696.88
2024-01-30T08:21:26.794Z,101699.44
2024-01-30T08:23:54.812Z,101700.09
2024-01-30T08:26:23.858Z,101699.03
2024-01-30T08:28:52.923Z,101691.66
2024-01-30T08:31:20.726Z,101687.09
2024-01-30T08:33:50.312Z,101692.09
2024-01-30T08:36:19.285Z,101693.72
2024-01-30T08:38:46.949Z,101692.53
2024-01-30T08:41:14.699Z,101658.41
2024-01-30T08:43:45.743Z,101699.16
2024-01-30T08:46:14.151Z,101699.03
2024-01-30T08:48:41.943Z,101696.19
2024-01-30T08:51:10.160Z,101664.72
2024-01-30T08:53:37.897Z,101688.88
2024-01-30T08:56:06.164Z,101695.31
2024-01-30T08:58:34.009Z,101696.97
2024-01-30T09:01:05.069Z,101702.72
2024-01-30T09:03:32.924Z,101710.13
2024-01-30T09:06:00.597Z,101702.59
2024-01-30T09:08:28.492Z,101710.59
2024-01-30T09:10:56.406Z,101715.09
2024-01-30T09:13:24.194Z,101716.47
2024-01-30T09:15:51.957Z,101721.59
2024-01-30T09:18:21.163Z,101721.19
2024-01-30T09:20:48.894Z,101724.38
2024-01-30T09:23:16.831Z,101726.47
2024-01-30T09:25:44.550Z,101729.41
2024-01-30T09:28:12.278Z,101730.34
2024-01-30T09:30:40.037Z,101744.16
2024-01-30T09:33:08.854Z,101751.78
2024-01-30T09:35:38.290Z,101748.28
2024-01-30T09:38:06.212Z,101744.47
2024-01-30T09:40:34.199Z,101741.63
2024-01-30T09:43:02.191Z,101738.59
2024-01-30T09:45:29.934Z,101739.06
2024-01-30T09:47:58.134Z,101740.81
2024-01-30T09:50:25.876Z,101736.13
2024-01-30T09:52:57.353Z,101738.19
2024-01-30T09:55:25.978Z,101730.66
2024-01-30T09:57:53.707Z,101737.13
2024-01-30T10:00:23.902Z,101731.41
2024-01-30T10:02:51.861Z,101728.28
2024-01-30T10:05:21.590Z,101730.81
2024-01-30T10:07:57.146Z,101728.84
2024-01-30T10:10:25.685Z,101724.72
2024-01-30T10:12:53.691Z,101727.19
2024-01-30T10:15:21.651Z,101727.34
2024-01-30T10:17:49.448Z,101733.22
2024-01-30T10:20:18.665Z,101733.03
2024-01-30T10:22:47.252Z,101729.38
2024-01-30T10:25:17.540Z,101731.28
2024-01-30T10:27:45.297Z,101735.53
2024-01-30T10:30:13.309Z,101735.19
2024-01-30T10:32:41.024Z,101735.78
2024-01-30T10:35:10.013Z,101728.28
2024-01-30T10:37:37.932Z,101743.63
2024-01-30T10:40:07.327Z,101734.38
2024-01-30T10:42:39.005Z,101700.41
2024-01-30T10:45:09.402Z,101757.38
2024-01-30T10:47:38.946Z,101741.84
2024-01-30T10:50:08.873Z,101747.06
2024-01-30T10:52:36.889Z,101742.59
2024-01-30T10:55:08.446Z,101736.13
2024-01-30T10:57:38.007Z,101754.13
2024-01-30T11:00:11.469Z,101749.75
2024-01-30T11:02:42.123Z,101748.63
2024-01-30T11:05:10.717Z,101749.97
2024-01-30T11:07:40.792Z,101749.41
2024-01-30T11:10:10.561Z,101753.44
2024-01-30T11:12:44.483Z,101751.13
2024-01-30T11:15:16.664Z,101745.59
2024-01-30T11:17:46.213Z,101747.25
2024-01-30T11:20:16.748Z,101747.94
2024-01-30T11:22:46.927Z,101758.06
2024-01-30T11:25:15.876Z,101754.72
2024-01-30T11:27:45.555Z,101756.91
2024-01-30T11:30:13.747Z,101743.97
2024-01-30T11:32:41.479Z,101746.59
2024-01-30T11:35:13.275Z,101745.13
2024-01-30T11:37:41.759Z,101747.75
2024-01-30T11:40:11.760Z,101754.22
2024-01-30T11:42:40.722Z,101748.03
2024-01-30T11:45:10.250Z,101751.59
2024-01-30T11:47:42.282Z,101751.69
2024-01-30T11:50:12.326Z,101768.72
2024-01-30T11:52:40.392Z,101765.72
2024-01-30T11:55:09.314Z,101759.53
2024-01-30T11:57:38.107Z,101756.56
2024-01-30T12:00:11.021Z,101763.56
2024-01-30T12:02:40.264Z,101774.03
2024-01-30T12:05:08.678Z,101762.31
2024-01-30T12:07:36.483Z,101771.31
2024-01-30T12:10:06.665Z,101770.53
2024-01-30T12:12:34.626Z,101769.94
2024-01-30T12:15:02.463Z,101760.53
2024-01-30T12:17:31.750Z,101761.53
2024-01-30T12:20:08.124Z,101766.16
2024-01-30T12:22:39.297Z,101745.78
2024-01-30T12:25:07.683Z,101763.91
2024-01-30T12:27:35.521Z,101760.31
2024-01-30T12:30:03.450Z,101759.34
2024-01-30T12:32:31.219Z,101775.78
2024-01-30T12:35:01.940Z,101766.88
2024-01-30T12:37:32.400Z,101766.59
2024-01-30T12:40:00.301Z,101762.84
2024-01-30T12:42:29.157Z,101766.50
2024-01-30T12:44:59.075Z,101767.47
2024-01-30T12:47:27.194Z,101764.78
2024-01-30T12:49:58.155Z,101760.16
2024-01-30T12:52:26.317Z,101758.91
2024-01-30T12:54:55.486Z,101762.66
2024-01-30T12:57:23.429Z,101758.75
2024-01-30T12:59:51.150Z,101761.72
2024-01-30T13:02:19.048Z,101753.44
2024-01-30T13:04:48.939Z,101758.94
2024-01-30T13:07:18.175Z,101770.03
2024-01-30T13:09:45.891Z,101763.22
2024-01-30T13:12:15.117Z,101759.56
2024-01-30T13:14:42.772Z,101767.06
2024-01-30T13:17:10.722Z,101774.13
2024-01-30T13:19:38.531Z,101783.19
2024-01-30T13:22:06.704Z,101772.13
2024-01-30T13:24:34.394Z,101783.91
2024-01-30T13:27:02.094Z,101773.59
2024-01-30T13:29:31.209Z,101771.06
2024-01-30T13:31:58.925Z,101758.47
2024-01-30T13:34:27.484Z,101773.09
2024-01-30T13:36:55.333Z,101785.63
2024-01-30T13:39:23.850Z,101784.28
2024-01-30T13:41:53.310Z,101786.09
2024-01-30T13:44:21.999Z,101789.84
2024-01-30T13:46:51.425Z,101764.59
2024-01-30T13:49:19.157Z,101786.09
2024-01-30T13:51:47.014Z,101782.72
2024-01-30T13:54:17.059Z,101774.25
2024-01-30T13:56:45.342Z,101773.19
2024-01-30T13:59:13.151Z,101783.91
2024-01-30T14:01:40.945Z,101783.91
2024-01-30T14:04:12.071Z,101781.13
2024-01-30T14:06:49.956Z,101789.59
2024-01-30T14:09:22.286Z,101781.47
2024-01-30T14:11:50.040Z,101779.94
2024-01-30T14:14:17.677Z,101776.84
2024-01-30T14:16:45.546Z,101784.97
2024-01-30T14:19:14.649Z,101784.97
2024-01-30T14:21:43.217Z,101776.06
2024-01-30T14:24:12.289Z,101778.84
2024-01-30T14:26:40.063Z,101728.84
2024-01-30T14:29:08.233Z,101741.84
2024-01-30T14:31:36.000Z,101781.13
2024-01-30T14:34:03.992Z,101778.25
2024-01-30T14:36:33.291Z,101779.31
2024-01-30T14:39:01.034Z,101791.59
2024-01-30T14:41:29.575Z,101792.38
2024-01-30T14:43:57.270Z,101793.16
2024-01-30T14:46:25.144Z,101786.19
2024-01-30T14:48:53.092Z,101782.72
2024-01-30T14:51:21.197Z,101791.25
2024-01-30T14:53:50.215Z,101806.25
2024-01-30T14:56:18.800Z,101797.00
2024-01-30T14:58:46.561Z,101804.31
2024-01-30T15:01:14.899Z,101799.25
2024-01-30T15:03:44.445Z,101802.94
2024-01-30T15:06:12.142Z,101814.34
2024-01-30T15:08:40.142Z,101817.16
2024-01-30T15:11:09.210Z,101813.91
2024-01-30T15:13:36.908Z,101819.50
2024-01-30T15:16:06.865Z,101818.44
2024-01-30T15:18:34.709Z,101817.56
2024-01-30T15:21:03.304Z,101831.94
2024-01-30T15:23:31.083Z,101837.09
2024-01-30T15:25:58.973Z,101841.31
2024-01-30T15:28:38.870Z,101836.56
2024-01-30T15:31:08.076Z,101843.22
2024-01-30T15:33:36.062Z,101851.41
2024-01-30T15:36:04.843Z,101848.69
2024-01-30T15:38:32.616Z,101811.63
2024-01-30T15:41:01.887Z,101861.66
2024-01-30T15:43:29.818Z,101867.41
2024-01-30T15:45:59.196Z,101871.25
2024-01-30T15:48:27.084Z,101872.06
2024-01-30T15:50:55.142Z,101882.09
2024-01-30T15:53:23.247Z,101889.59
2024-01-30T15:55:50.974Z,101890.47
2024-01-30T15:58:18.666Z,101890.06
2024-01-30T16:00:46.540Z,101887.34
2024-01-30T16:03:15.756Z,101851.25
2024-01-30T16:05:43.791Z,101911.03
2024-01-30T16:08:11.516Z,101892.72
2024-01-30T16:10:39.380Z,101903.66
2024-01-30T16:13:07.118Z,101905.66
2024-01-30T16:15:34.897Z,101905.88
2024-01-30T16:18:03.285Z,101912.31
2024-01-30T16:20:32.400Z,101905.16
2024-01-30T16:23:00.071Z,101918.66
2024-01-30T16:25:27.852Z,101910.25
2024-01-30T16:27:55.649Z,101925.78
2024-01-30T16:30:23.329Z,101937.69
2024-01-30T16:32:52.316Z,101931.47
2024-01-30T16:35:20.142Z,101947.00
2024-01-30T16:37:49.170Z,101949.06
2024-01-30T16:40:17.243Z,101951.91
2024-01-30T16:42:44.912Z,101956.44
2024-01-30T16:45:12.585Z,101957.31
2024-01-30T16:47:40.323Z,101963.66
2024-01-30T16:50:08.534Z,101970.22
2024-01-30T16:52:36.320Z,101971.38
2024-01-30T16:55:06.210Z,101972.31
2024-01-30T16:57:36.751Z,101970.34
2024-01-30T17:00:06.925Z,101982.41
2024-01-30T17:02:34.629Z,101984.59
2024-01-30T17:05:11.363Z,101985.75
2024-01-30T17:07:44.116Z,101991.59
2024-01-30T17:10:14.420Z,102004.41
2024-01-30T17:12:42.148Z,101997.69
2024-01-30T17:15:10.731Z,101999.28
2024-01-30T17:17:38.437Z,102011.09
2024-01-30T17:20:08.056Z,102010.22
2024-01-30T17:22:36.200Z,102012.09
2024-01-30T17:25:04.540Z,102016.69
2024-01-30T17:27:33.947Z,102015.75
2024-01-30T17:30:01.854Z,102030.91
2024-01-30T17:32:29.588Z,102023.75
2024-01-30T17:34:57.384Z,102026.44
2024-01-30T17:37:25.213Z,102033.72
2024-01-30T17:39:53.097Z,102044.44
2024-01-30T17:42:22.849Z,102037.59
2024-01-30T17:44:52.283Z,102045.44
2024-01-30T17:47:20.055Z,102056.59
2024-01-30T17:49:47.762Z,102044.94
2024-01-30T17:52:16.431Z,102057.53
2024-01-30T17:54:44.109Z,102050.53
2024-01-30T17:57:12.025Z,102065.16
2024-01-30T17:59:40.100Z,102076.41
2024-01-30T18:02:09.530Z,102078.81
2024-01-30T18:04:40.508Z,102092.34
2024-01-30T18:07:08.694Z,102037.56
2024-01-30T18:09:36.630Z,102086.31
2024-01-30T18:12:04.685Z,102103.59
2024-01-30T18:14:32.400Z,102091.88
2024-01-30T18:17:00.258Z,102100.25
2024-01-30T18:19:29.519Z,102095.22
2024-01-30T18:21:57.294Z,102102.31
2024-01-30T18:26:53.839Z,102113.38
2024-01-30T18:29:21.487Z,102089.28
2024-01-30T18:31:49.236Z,102092.66
2024-01-30T18:34:17.112Z,102095.28
2024-01-30T18:36:46.274Z,102104.31
2024-01-30T18:39:14.612Z,102117.75
2024-01-30T18:41:42.356Z,102120.44
2024-01-30T18:44:10.012Z,102109.75
2024-01-30T18:46:38.160Z,102108.13
2024-01-30T18:49:06.071Z,102116.19
2024-01-30T18:51:34.001Z,102124.31
2024-01-30T18:54:03.036Z,102128.75
2024-01-30T18:56:30.714Z,102130.81
2024-01-30T18:58:58.487Z,102131.69
2024-01-30T19:01:26.274Z,102137.06
2024-01-30T19:03:54.791Z,102141.69
2024-01-30T19:06:22.627Z,102142.44
2024-01-30T19:08:50.359Z,102139.81
2024-01-30T19:11:22.567Z,102140.00
2024-01-30T19:13:50.535Z,102149.00
2024-01-30T19:16:18.247Z,102146.13
2024-01-30T19:18:46.603Z,102148.06
2024-01-30T19:21:14.498Z,102145.63
2024-01-30T19:23:42.193Z,102160.84
2024-01-30T19:26:10.058Z,102145.13
2024-01-30T19:28:39.565Z,102155.47
2024-01-30T19:31:07.513Z,102153.72
2024-01-30T19:33:35.395Z,102162.59
2024-01-30T19:36:03.396Z,102160.84
2024-01-30T19:38:31.073Z,102163.53
2024-01-30T19:40:59.031Z,102165.34
2024-01-30T19:43:27.390Z,102168.34
2024-01-30T19:45:56.582Z,102152.78
2024-01-30T19:48:24.271Z,102176.41
2024-01-30T19:50:51.964Z,102179.22
2024-01-30T19:53:21.920Z,102186.44
2024-01-30T19:55:49.654Z,102197.38
2024-01-30T19:58:17.426Z,102192.31
2024-01-30T20:00:45.504Z,102192.34
2024-01-30T20:03:14.607Z,102190.72
2024-01-30T20:05:42.398Z,102194.22
2024-01-30T20:08:10.128Z,102200.69
2024-01-30T20:10:37.845Z,102200.66
2024-01-30T20:13:05.907Z,102201.47
2024-01-30T20:15:33.652Z,102209.31
2024-01-30T20:18:01.429Z,102198.88
2024-01-30T20:20:30.908Z,102222.16
2024-01-30T20:22:58.623Z,102231.16
2024-01-30T20:25:26.370Z,102230.22
2024-01-30T20:27:54.884Z,102220.41
2024-01-30T20:30:23.610Z,102225.09
2024-01-30T20:32:52.566Z,102227.00
2024-01-30T20:35:21.095Z,102230.69
2024-01-30T20:37:51.042Z,102231.75
2024-01-30T20:40:19.089Z,102233.66
2024-01-30T20:42:48.369Z,102240.75
2024-01-30T20:45:16.515Z,102241.63
2024-01-30T20:47:44.563Z,102233.63
2024-01-30T20:50:12.445Z,102187.44
2024-01-30T20:52:40.312Z,102231.44
2024-01-30T20:55:09.991Z,102234.72
2024-01-30T20:57:37.770Z,102246.44
2024-01-30T21:00:08.561Z,102241.06
2024-01-30T21:02:38.358Z,102244.69
2024-01-30T21:05:07.059Z,102247.22
2024-01-30T21:07:34.944Z,102247.41
2024-01-30T21:10:02.769Z,102256.44
2024-01-30T21:12:31.846Z,102252.19
2024-01-30T21:14:59.525Z,102263.53
2024-01-30T21:17:27.885Z,102265.31
2024-01-30T21:19:55.789Z,102261.81
2024-01-30T21:22:23.582Z,102265.44
2024-01-30T21:24:51.507Z,102262.03
2024-01-30T21:27:19.233Z,102259.19
2024-01-30T21:29:48.288Z,102235.59
2024-01-30T21:32:16.467Z,102260.06
2024-01-30T21:34:44.289Z,102255.56
2024-01-30T21:37:11.985Z,102258.59
2024-01-30T21:39:41.036Z,102247.75
2024-01-30T21:42:08.776Z,102261.13
2024-01-30T21:44:36.553Z,102255.09
2024-01-30T21:47:06.077Z,102250.63
2024-01-30T21:49:34.580Z,102253.44
2024-01-30T21:52:06.117Z,102263.28
2024-01-30T21:54:34.120Z,102222.25
2024-01-30T21:57:01.879Z,102264.41
2024-01-30T21:59:29.684Z,102273.25
2024-01-30T22:01:57.377Z,102277.06
2024-01-30T22:04:26.620Z,102273.69
2024-01-30T22:06:54.447Z,102268.03
2024-01-30T22:09:23.213Z,102276.91
2024-01-30T22:11:50.994Z,102263.66
2024-01-30T22:14:18.822Z,102269.03
2024-01-30T22:16:46.497Z,102269.03
2024-01-30T22:19:14.854Z,102269.03
2024-01-30T22:21:43.885Z,102273.38
2024-01-30T22:24:11.546Z,102268.31
2024-01-30T22:26:43.878Z,102275.44
2024-01-30T22:29:11.862Z,102280.75
2024-01-30T22:31:40.741Z,102293.31
2024-01-30T22:34:08.440Z,102305.72
2024-01-30T22:36:36.247Z,102293.25
2024-01-30T22:39:06.705Z,102296.84
2024-01-30T22:41:34.695Z,102303.97
2024-01-30T22:44:02.893Z,102302.56
2024-01-30T22:46:30.810Z,102301.69
2024-01-30T22:48:58.688Z,102306.19
2024-01-30T22:51:26.989Z,102309.81
2024-01-30T22:53:54.848Z,102299.19
2024-01-30T22:56:23.878Z,102308.00
2024-01-30T22:58:51.584Z,102306.97
2024-01-30T23:01:19.306Z,102314.06
2024-01-30T23:03:47.320Z,102314.16
2024-01-30T23:06:15.021Z,102321.59
2024-01-30T23:08:42.697Z,102322.44
2024-01-30T23:11:12.765Z,102332.47
2024-01-30T23:13:42.615Z,102340.94
2024-01-30T23:16:10.523Z,102346.41
2024-01-30T23:18:38.262Z,102340.94
2024-01-30T23:21:06.231Z,102351.44
2024-01-30T23:23:34.247Z,102345.38
2024-01-30T23:26:01.929Z,102363.16
2024-01-30T23:28:29.626Z,102356.13
2024-01-30T23:30:58.979Z,102361.75
2024-01-30T23:33:26.813Z,102327.31
2024-01-30T23:35:54.536Z,102359.72
2024-01-30T23:38:22.233Z,102360.56
2024-01-30T23:40:50.523Z,102363.25
2024-01-30T23:43:19.215Z,102367.84
2024-01-30T23:45:46.921Z,102357.00
2024-01-30T23:48:16.677Z,102354.31
2024-01-30T23:50:44.441Z,102359.63
2024-01-30T23:53:12.166Z,102352.69
2024-01-30T23:55:39.996Z,102353.69
2024-01-30T23:58:08.354Z,102349.66
